Heat Index SAI AWOS Graphical Display Untitled Document
Phillipsburg Municipal , Kansas (PHG)
270
23:43
18/01/23
04
N/A
N/A
30.27
N/A
1907
36(F), 2(C)
28(F), -2(C)
36 F
75%
CLR
10
N/A
N/A
N/A
23:43 zulu Wind 270 at 04 Knots, Altimeter 30.27
METAR KPHG 232343Z AUTO 27004KT 10SM CLR 02/M02 A3027 A02
METAR:
FAA Disclaimer--Advisory Use ONLY, not for flight info-- 10/06/2008: Welcome to the Phillipsburg Municipal , Kansas (PHG) Graphical AWOS weather display. Airport 785-543-5424, AWOS: 119.125 AWOS Phone Number: 785/543-8960
INFO:
Wind Direction:
Wind Speed:
Wind Gust:
Wind Variable:
Altimeter:
Dens Alt:
Elev:
Temp:
Dwpt:
Wind Chill
Rel Humidity:
Ceiling:
Visibility:
Prsnt Wea:
PCPN:
Remarks:
How to read the WebPage